createdAt,value
2018-03-22T00:00:13.176Z,101106.36
2018-03-22T00:02:45.790Z,101103.43
2018-03-22T00:05:18.357Z,101094.62
2018-03-22T00:07:50.950Z,101087.77
2018-03-22T00:10:23.510Z,101083.95
2018-03-22T00:12:56.080Z,101074.49
2018-03-22T00:15:28.661Z,101080.52
2018-03-22T00:18:01.228Z,101072.95
2018-03-22T00:20:33.773Z,101072.44
2018-03-22T00:23:06.344Z,101059.26
2018-03-22T00:25:38.900Z,101056.88
2018-03-22T00:28:11.489Z,101050.48
2018-03-22T00:30:44.051Z,101045.45
2018-03-22T00:33:16.614Z,101037.42
2018-03-22T00:35:49.196Z,101037.81
2018-03-22T00:38:21.766Z,101036.08
2018-03-22T00:40:54.316Z,101036.58
2018-03-22T00:43:26.876Z,101037.45
2018-03-22T00:45:59.435Z,101033.23
2018-03-22T00:48:32.002Z,101031.14
2018-03-22T00:51:04.622Z,101031.88
2018-03-22T00:53:37.192Z,101015.48
2018-03-22T00:56:09.920Z,101009.98
2018-03-22T00:58:42.492Z,101003.64
2018-03-22T01:01:15.060Z,101000.19
2018-03-22T01:03:47.628Z,100994.72
2018-03-22T01:06:20.168Z,100990.89
2018-03-22T01:08:52.803Z,100980.35
2018-03-22T01:11:25.358Z,100965.12
2018-03-22T01:13:57.944Z,100958.36
2018-03-22T01:16:30.519Z,100957.89
2018-03-22T01:19:03.093Z,100946.01
2018-03-22T01:21:35.643Z,100947.70
2018-03-22T01:24:08.206Z,100938.52
2018-03-22T01:26:40.757Z,100930.52
2018-03-22T01:29:13.344Z,100922.41
2018-03-22T01:31:45.881Z,100910.97
2018-03-22T01:34:18.461Z,100905.94
2018-03-22T01:36:51.008Z,100897.11
2018-03-22T01:39:23.583Z,100888.23
2018-03-22T01:41:56.130Z,100883.92
2018-03-22T01:44:28.756Z,100885.69
2018-03-22T01:47:01.322Z,100882.70
2018-03-22T01:49:33.887Z,100880.59
2018-03-22T01:52:06.440Z,100871.34
2018-03-22T01:54:39.012Z,100857.75
2018-03-22T01:57:11.568Z,100850.59
2018-03-22T01:59:44.149Z,100848.05
2018-03-22T02:02:16.680Z,100841.28
2018-03-22T02:04:49.245Z,100830.69
2018-03-22T02:07:21.785Z,100823.94
2018-03-22T02:09:54.381Z,100818.06
2018-03-22T02:12:26.924Z,100818.00
2018-03-22T02:14:59.498Z,100815.89
2018-03-22T02:17:32.022Z,100803.25
2018-03-22T02:20:04.575Z,100798.61
2018-03-22T02:22:37.111Z,100790.16
2018-03-22T02:25:09.719Z,100786.34
2018-03-22T02:27:42.308Z,100788.02
2018-03-22T02:30:14.889Z,100776.15
2018-03-22T02:32:47.428Z,100771.11
2018-03-22T02:35:20.000Z,100765.97
2018-03-22T02:37:52.553Z,100768.52
2018-03-22T02:40:25.130Z,100760.03
2018-03-22T02:42:57.672Z,100749.67
2018-03-22T02:45:30.258Z,100746.43
2018-03-22T02:48:02.823Z,100746.45
2018-03-22T02:50:35.414Z,100740.12
2018-03-22T02:53:07.969Z,100734.58
2018-03-22T02:55:40.543Z,100720.18
2018-03-22T02:58:13.089Z,100722.76
2018-03-22T03:00:45.656Z,100722.69
2018-03-22T03:03:18.200Z,100720.56
2018-03-22T03:05:50.778Z,100707.58
2018-03-22T03:08:23.374Z,100695.73
2018-03-22T03:10:55.968Z,100686.44
2018-03-22T03:13:28.523Z,100685.16
2018-03-22T03:16:01.091Z,100680.87
2018-03-22T03:18:33.689Z,100675.88
2018-03-22T03:21:06.261Z,100661.96
2018-03-22T03:23:38.831Z,100660.65
2018-03-22T03:26:11.401Z,100648.72
2018-03-22T03:28:43.996Z,100647.15
2018-03-22T03:31:16.568Z,100647.45
2018-03-22T03:33:49.146Z,100623.49
2018-03-22T03:36:21.696Z,100622.23
2018-03-22T03:38:54.283Z,100626.08
2018-03-22T03:41:26.923Z,100606.27
2018-03-22T03:43:59.467Z,100609.20
2018-03-22T03:46:32.019Z,100606.69
2018-03-22T03:51:41.724Z,100588.11
2018-03-22T03:54:14.305Z,100594.02
2018-03-22T03:56:46.966Z,100580.45
2018-03-22T03:59:19.494Z,100573.70
2018-03-22T04:01:51.974Z,100574.57
2018-03-22T04:04:24.498Z,100572.03
2018-03-22T04:06:56.975Z,100559.30
2018-03-22T04:09:29.476Z,100560.62
2018-03-22T04:12:01.955Z,100547.51
2018-03-22T04:14:34.458Z,100549.62
2018-03-22T04:17:06.999Z,100538.68
2018-03-22T04:19:39.726Z,100534.48
2018-03-22T04:22:12.491Z,100530.25
2018-03-22T04:24:45.071Z,100530.68
2018-03-22T04:27:17.644Z,100519.29
2018-03-22T04:29:50.162Z,100514.58
2018-03-22T04:32:22.654Z,100512.41
2018-03-22T04:34:55.178Z,100509.09
2018-03-22T04:37:27.652Z,100498.98
2018-03-22T04:40:00.155Z,100501.95
2018-03-22T04:42:32.636Z,100490.12
2018-03-22T04:45:05.138Z,100485.48
2018-03-22T04:47:37.656Z,100478.30
2018-03-22T04:50:10.440Z,100467.34
2018-03-22T04:52:43.041Z,100455.95
2018-03-22T04:55:15.577Z,100452.97
2018-03-22T04:57:48.083Z,100444.11
2018-03-22T05:00:20.669Z,100444.98
2018-03-22T05:02:53.169Z,100438.24
2018-03-22T05:05:25.673Z,100426.28
2018-03-22T05:07:58.158Z,100417.16
2018-03-22T05:10:30.646Z,100419.25
2018-03-22T05:13:03.126Z,100418.41
2018-03-22T05:15:40.353Z,100409.98
2018-03-22T05:18:12.871Z,100404.03
2018-03-22T05:20:45.379Z,100397.33
2018-03-22T05:23:17.870Z,100397.72
2018-03-22T05:25:50.366Z,100400.18
2018-03-22T05:28:22.892Z,100400.28
2018-03-22T05:30:55.396Z,100400.31
2018-03-22T05:33:27.884Z,100406.64
2018-03-22T05:36:00.379Z,100403.70
2018-03-22T05:38:32.858Z,100407.91
2018-03-22T05:41:05.359Z,100402.42
2018-03-22T05:43:37.870Z,100391.87
2018-03-22T05:46:10.612Z,100398.19
2018-03-22T05:48:43.135Z,100395.25
2018-03-22T05:51:15.670Z,100386.83
2018-03-22T05:53:48.180Z,100392.72
2018-03-22T05:56:20.682Z,100395.27
2018-03-22T05:58:53.164Z,100385.13
2018-03-22T06:01:25.662Z,100388.52
2018-03-22T06:03:58.150Z,100380.50
2018-03-22T06:06:30.643Z,100381.36
2018-03-22T06:09:03.119Z,100365.75
2018-03-22T06:11:35.622Z,100367.00
2018-03-22T06:14:08.175Z,100364.06
2018-03-22T06:16:40.706Z,100364.89
2018-03-22T06:19:13.257Z,100353.92
2018-03-22T06:21:45.799Z,100347.59
2018-03-22T06:24:18.294Z,100341.27
2018-03-22T06:26:50.802Z,100339.56
2018-03-22T06:29:23.289Z,100331.61
2018-03-22T06:31:55.798Z,100323.55
2018-03-22T06:34:28.271Z,100323.91
2018-03-22T06:37:00.779Z,100323.08
2018-03-22T06:39:33.251Z,100328.52
2018-03-22T06:42:05.754Z,100320.09
2018-03-22T06:44:38.474Z,100323.92
2018-03-22T06:47:11.215Z,100323.08
2018-03-22T06:49:43.761Z,100309.97
2018-03-22T06:52:16.303Z,100309.56
2018-03-22T06:54:48.826Z,100309.09
2018-03-22T06:57:21.367Z,100309.47
2018-03-22T06:59:53.867Z,100306.06
2018-03-22T07:02:26.368Z,100306.20
2018-03-22T07:04:58.866Z,100316.22
2018-03-22T07:07:31.350Z,100306.95
2018-03-22T07:10:03.855Z,100295.58
2018-03-22T07:12:36.336Z,100290.40
2018-03-22T07:15:09.543Z,100287.58
2018-03-22T07:17:42.094Z,100293.38
2018-03-22T07:20:14.658Z,100295.48
2018-03-22T07:22:47.211Z,100291.62
2018-03-22T07:25:19.748Z,100285.73
2018-03-22T07:27:52.242Z,100280.16
2018-03-22T07:30:24.746Z,100272.48
2018-03-22T07:32:57.222Z,100278.30
2018-03-22T07:35:29.722Z,100271.88
2018-03-22T07:38:02.199Z,100275.75
2018-03-22T07:40:34.784Z,100271.88
2018-03-22T07:43:12.860Z,100274.58
2018-03-22T07:45:45.433Z,100262.71
2018-03-22T07:48:17.950Z,100249.86
2018-03-22T07:50:50.485Z,100241.24
2018-03-22T07:53:22.970Z,100245.98
2018-03-22T07:55:55.467Z,100243.09
2018-03-22T07:58:27.945Z,100230.71
2018-03-22T08:01:00.443Z,100231.05
2018-03-22T08:03:32.921Z,100238.74
2018-03-22T08:06:05.418Z,100230.58
2018-03-22T08:08:37.973Z,100231.77
2018-03-22T08:11:10.674Z,100237.69
2018-03-22T08:13:45.332Z,100229.72
2018-03-22T08:16:20.004Z,100230.03
2018-03-22T08:18:52.492Z,100219.61
2018-03-22T08:21:24.986Z,100208.66
2018-03-22T08:23:57.461Z,100206.89
2018-03-22T08:26:29.968Z,100199.75
2018-03-22T08:29:02.453Z,100193.91
2018-03-22T08:31:34.953Z,100194.70
2018-03-22T08:34:07.859Z,100191.23
2018-03-22T08:36:40.450Z,100190.73
2018-03-22T08:39:13.011Z,100202.14
2018-03-22T08:41:45.572Z,100210.95
2018-03-22T08:44:18.091Z,100203.10
2018-03-22T08:46:50.590Z,100207.09
2018-03-22T08:49:23.062Z,100205.34
2018-03-22T08:51:55.563Z,100193.42
2018-03-22T08:54:28.042Z,100188.75
2018-03-22T08:57:00.539Z,100191.64
2018-03-22T08:59:33.014Z,100190.30
2018-03-22T09:02:05.510Z,100193.14
2018-03-22T09:04:38.023Z,100189.25
2018-03-22T09:07:10.680Z,100190.41
2018-03-22T09:09:43.317Z,100185.08
2018-03-22T09:12:15.954Z,100190.17
2018-03-22T09:14:48.453Z,100188.03
2018-03-22T09:17:20.960Z,100180.09
2018-03-22T09:19:53.434Z,100183.53
2018-03-22T09:22:25.948Z,100183.76
2018-03-22T09:24:58.430Z,100177.70
2018-03-22T09:27:30.934Z,100174.41
2018-03-22T09:30:03.411Z,100173.05
2018-03-22T09:32:35.910Z,100170.85
2018-03-22T09:35:08.835Z,100163.96
2018-03-22T09:37:41.461Z,100164.80
2018-03-22T09:40:14.030Z,100171.70
2018-03-22T09:42:46.602Z,100163.81
2018-03-22T09:45:19.143Z,100168.57
2018-03-22T09:47:51.638Z,100169.22
2018-03-22T09:50:24.119Z,100160.53
2018-03-22T09:52:56.615Z,100160.28
2018-03-22T09:55:29.106Z,100164.92
2018-03-22T09:58:01.607Z,100159.36
2018-03-22T10:00:34.092Z,100172.98
2018-03-22T10:03:06.609Z,100174.06
2018-03-22T10:05:39.235Z,100169.82
2018-03-22T10:08:11.867Z,100168.63
2018-03-22T10:10:44.377Z,100171.27
2018-03-22T10:13:16.904Z,100176.52
2018-03-22T10:15:49.402Z,100165.33
2018-03-22T10:18:21.899Z,100171.19
2018-03-22T10:20:54.378Z,100159.48
2018-03-22T10:23:26.875Z,100166.20
2018-03-22T10:25:59.378Z,100156.84
2018-03-22T10:28:31.858Z,100162.17
2018-03-22T10:31:04.359Z,100160.77
2018-03-22T10:33:36.855Z,100162.70
2018-03-22T10:36:09.433Z,100160.05
2018-03-22T10:38:42.110Z,100149.09
2018-03-22T10:41:14.666Z,100150.05
2018-03-22T10:43:47.172Z,100147.39
2018-03-22T10:46:19.699Z,100144.73
2018-03-22T10:48:52.186Z,100132.41
2018-03-22T10:51:24.686Z,100127.17
2018-03-22T10:53:57.228Z,100129.81
2018-03-22T10:56:29.682Z,100131.10
2018-03-22T10:59:02.157Z,100131.33
2018-03-22T11:01:40.423Z,100125.79
2018-03-22T11:04:12.943Z,100128.13
2018-03-22T11:06:45.444Z,100132.13
2018-03-22T11:09:17.979Z,100124.05
2018-03-22T11:11:50.475Z,100132.78
2018-03-22T11:14:22.959Z,100131.16
2018-03-22T11:16:55.464Z,100125.06
2018-03-22T11:19:27.942Z,100126.27
2018-03-22T11:22:00.438Z,100133.36
2018-03-22T11:24:32.915Z,100128.73
2018-03-22T11:27:05.420Z,100126.88
2018-03-22T11:29:37.948Z,100128.96
2018-03-22T11:32:10.747Z,100131.60
2018-03-22T11:34:43.284Z,100130.38
2018-03-22T11:37:15.877Z,100132.80
2018-03-22T11:39:48.367Z,100131.86
2018-03-22T11:42:20.875Z,100123.98
2018-03-22T11:44:53.354Z,100125.31
2018-03-22T11:47:25.846Z,100132.23
2018-03-22T11:49:58.327Z,100120.67
2018-03-22T11:52:30.826Z,100124.92
2018-03-22T11:55:03.312Z,100123.17
2018-03-22T11:57:35.810Z,100121.36
2018-03-22T12:00:08.330Z,100118.39
2018-03-22T12:02:40.954Z,100120.17
2018-03-22T12:05:13.508Z,100109.73
2018-03-22T12:07:46.062Z,100105.37
2018-03-22T12:10:18.547Z,100099.44
2018-03-22T12:12:51.046Z,100098.00
2018-03-22T12:15:23.527Z,100092.80
2018-03-22T12:17:56.035Z,100104.11
2018-03-22T12:20:28.516Z,100093.66
2018-03-22T12:23:01.019Z,100091.94
2018-03-22T12:25:33.493Z,100083.25
2018-03-22T12:28:05.994Z,100090.80
2018-03-22T12:30:38.525Z,100083.00
2018-03-22T12:33:11.064Z,100077.06
2018-03-22T12:35:43.631Z,100071.50
2018-03-22T12:38:16.167Z,100075.27
2018-03-22T12:40:48.662Z,100074.33
2018-03-22T12:43:21.233Z,100074.63
2018-03-22T12:45:53.670Z,100068.94
2018-03-22T12:48:26.174Z,100067.92
2018-03-22T12:50:58.655Z,100061.98
2018-03-22T12:53:31.158Z,100057.69
2018-03-22T12:56:03.632Z,100057.84
2018-03-22T12:58:36.134Z,100060.03
2018-03-22T13:01:08.782Z,100061.28
2018-03-22T13:03:41.510Z,100059.28
2018-03-22T13:06:14.049Z,100059.15
2018-03-22T13:08:46.646Z,100061.53
2018-03-22T13:11:19.132Z,100068.94
2018-03-22T13:13:51.630Z,100074.38
2018-03-22T13:16:24.102Z,100075.31
2018-03-22T13:18:56.602Z,100076.67
2018-03-22T13:21:29.083Z,100076.26
2018-03-22T13:24:01.584Z,100082.09
2018-03-22T13:26:34.075Z,100078.03
2018-03-22T13:29:06.574Z,100085.03
2018-03-22T13:31:39.118Z,100087.14
2018-03-22T13:34:11.694Z,100080.59
2018-03-22T13:36:44.198Z,100084.39
2018-03-22T13:39:16.766Z,100084.87
2018-03-22T13:41:49.256Z,100090.19
2018-03-22T13:44:21.766Z,100082.56
2018-03-22T13:46:54.255Z,100083.58
2018-03-22T13:49:26.766Z,100086.47
2018-03-22T13:51:59.253Z,100081.80
2018-03-22T13:54:31.750Z,100079.61
2018-03-22T13:57:04.241Z,100077.43
2018-03-22T13:59:36.741Z,100079.80
2018-03-22T14:02:09.341Z,100081.48
2018-03-22T14:04:41.880Z,100077.43
2018-03-22T14:07:14.452Z,100076.52
2018-03-22T14:09:46.962Z,100068.08
2018-03-22T14:12:19.494Z,100078.95
2018-03-22T14:14:51.966Z,100074.70
2018-03-22T14:17:24.456Z,100077.87
2018-03-22T14:19:56.934Z,100077.48
2018-03-22T14:22:29.425Z,100078.88
2018-03-22T14:25:01.907Z,100076.05
2018-03-22T14:27:34.417Z,100082.16
2018-03-22T14:30:06.920Z,100080.80
2018-03-22T14:32:39.522Z,100076.62
2018-03-22T14:35:12.046Z,100072.38
2018-03-22T14:37:44.573Z,100079.98
2018-03-22T14:40:17.071Z,100075.65
2018-03-22T14:42:49.574Z,100075.52
2018-03-22T14:45:22.046Z,100078.82
2018-03-22T14:47:54.542Z,100069.69
2018-03-22T14:50:27.023Z,100070.16
2018-03-22T14:52:59.515Z,100069.11
2018-03-22T14:55:31.998Z,100073.13
2018-03-22T14:58:04.496Z,100071.13
2018-03-22T15:00:36.968Z,100067.36
2018-03-22T15:03:09.579Z,100068.30
2018-03-22T15:05:42.110Z,100076.23
2018-03-22T15:08:14.656Z,100064.74
2018-03-22T15:10:47.155Z,100065.13
2018-03-22T15:13:19.686Z,100066.74
2018-03-22T15:15:52.159Z,100069.50
2018-03-22T15:18:24.659Z,100068.34
2018-03-22T15:20:57.140Z,100072.11
2018-03-22T15:23:29.637Z,100066.72
2018-03-22T15:26:02.124Z,100070.11
2018-03-22T15:28:34.623Z,100066.30
2018-03-22T15:31:07.129Z,100072.95
2018-03-22T15:33:39.665Z,100073.95
2018-03-22T15:36:12.247Z,100070.80
2018-03-22T15:38:44.792Z,100081.88
2018-03-22T15:41:17.317Z,100077.29
2018-03-22T15:43:49.818Z,100083.54
2018-03-22T15:46:22.299Z,100084.14
2018-03-22T15:48:54.786Z,100082.73
2018-03-22T15:51:27.254Z,100086.16
2018-03-22T15:53:59.750Z,100094.37
2018-03-22T15:56:32.222Z,100094.90
2018-03-22T15:59:04.748Z,100088.27
2018-03-22T16:01:37.258Z,100084.02
2018-03-22T16:04:09.781Z,100088.27
2018-03-22T16:06:42.317Z,100094.53
2018-03-22T16:09:14.827Z,100105.69
2018-03-22T16:11:47.349Z,100112.39
2018-03-22T16:14:19.852Z,100115.75
2018-03-22T16:16:52.322Z,100121.30
2018-03-22T16:19:24.812Z,100125.39
2018-03-22T16:21:57.282Z,100122.10
2018-03-22T16:24:29.783Z,100132.00
2018-03-22T16:27:02.259Z,100127.97
2018-03-22T16:29:34.759Z,100122.80
2018-03-22T16:32:07.251Z,100130.03
2018-03-22T16:34:39.844Z,100123.86
2018-03-22T16:37:12.347Z,100126.06
2018-03-22T16:39:44.865Z,100124.97
2018-03-22T16:42:17.366Z,100133.05
2018-03-22T16:44:49.866Z,100125.74
2018-03-22T16:47:22.355Z,100126.23
2018-03-22T16:49:54.846Z,100136.88
2018-03-22T16:52:27.322Z,100144.25
2018-03-22T16:54:59.814Z,100144.33
2018-03-22T16:57:32.289Z,100147.02
2018-03-22T17:00:04.819Z,100153.48
2018-03-22T17:02:37.312Z,100158.86
2018-03-22T17:05:09.890Z,100157.53
2018-03-22T17:07:42.431Z,100157.14
2018-03-22T17:10:14.971Z,100152.84
2018-03-22T17:12:47.561Z,100149.70
2018-03-22T17:15:20.076Z,100147.98
2018-03-22T17:17:52.572Z,100152.85
2018-03-22T17:20:25.066Z,100155.91
2018-03-22T17:22:57.534Z,100148.31
2018-03-22T17:25:30.023Z,100153.12
2018-03-22T17:28:02.490Z,100163.80
2018-03-22T17:30:34.982Z,100160.33
2018-03-22T17:33:07.476Z,100156.23
2018-03-22T17:35:40.059Z,100158.16
2018-03-22T17:38:12.592Z,100152.60
2018-03-22T17:40:45.138Z,100157.05
2018-03-22T17:43:17.650Z,100155.56
2018-03-22T17:45:50.171Z,100156.39
2018-03-22T17:48:22.687Z,100159.97
2018-03-22T17:50:55.174Z,100165.69
2018-03-22T17:53:27.677Z,100164.78
2018-03-22T17:56:00.147Z,100165.20
2018-03-22T17:58:32.630Z,100171.78
2018-03-22T18:01:05.100Z,100168.91
2018-03-22T18:03:37.664Z,100171.42
2018-03-22T18:06:10.252Z,100185.14
2018-03-22T18:08:42.809Z,100189.00
2018-03-22T18:11:15.340Z,100185.95
2018-03-22T18:13:47.878Z,100188.70
2018-03-22T18:16:20.355Z,100188.16
2018-03-22T18:18:52.851Z,100199.30
2018-03-22T18:21:25.324Z,100193.27
2018-03-22T18:23:57.812Z,100199.33
2018-03-22T18:26:30.283Z,100194.91
2018-03-22T18:29:02.775Z,100198.34
2018-03-22T18:31:35.263Z,100200.36
2018-03-22T18:34:07.895Z,100198.62
2018-03-22T18:36:40.495Z,100200.36
2018-03-22T18:39:13.164Z,100196.94
2018-03-22T18:41:45.705Z,100208.78
2018-03-22T18:44:18.256Z,100206.60
2018-03-22T18:46:50.727Z,100211.40
2018-03-22T18:49:23.236Z,100212.73
2018-03-22T18:51:55.713Z,100207.59
2018-03-22T18:54:28.219Z,100208.98
2018-03-22T18:57:00.690Z,100210.23
2018-03-22T18:59:33.181Z,100210.14
2018-03-22T19:02:05.658Z,100207.16
2018-03-22T19:04:38.220Z,100206.62
2018-03-22T19:07:10.756Z,100208.02
2018-03-22T19:09:43.434Z,100214.34
2018-03-22T19:12:15.994Z,100210.06
2018-03-22T19:14:48.599Z,100208.59
2018-03-22T19:17:21.094Z,100203.95
2018-03-22T19:19:53.582Z,100208.52
2018-03-22T19:22:26.057Z,100207.33
2018-03-22T19:24:58.551Z,100207.84
2018-03-22T19:27:31.036Z,100215.05
2018-03-22T19:30:03.529Z,100207.52
2018-03-22T19:32:36.006Z,100209.44
2018-03-22T19:35:08.615Z,100213.69
2018-03-22T19:37:41.136Z,100221.80
2018-03-22T19:40:13.665Z,100217.64
2018-03-22T19:42:46.187Z,100215.14
2018-03-22T19:45:18.706Z,100217.75
2018-03-22T19:47:51.179Z,100216.20
2018-03-22T19:50:23.694Z,100216.20
2018-03-22T19:52:56.220Z,100215.72
2018-03-22T19:55:28.812Z,100221.98
2018-03-22T19:58:01.290Z,100213.90
2018-03-22T20:00:33.790Z,100211.38
2018-03-22T20:03:06.323Z,100210.61
2018-03-22T20:05:38.911Z,100210.72
2018-03-22T20:08:11.543Z,100208.16
2018-03-22T20:10:44.492Z,100211.52
2018-03-22T20:13:17.094Z,100214.13
2018-03-22T20:15:49.631Z,100215.80
2018-03-22T20:18:22.116Z,100213.20
2018-03-22T20:20:54.751Z,100211.49
2018-03-22T20:23:27.231Z,100214.56
2018-03-22T20:25:59.743Z,100214.68
2018-03-22T20:28:32.295Z,100207.09
2018-03-22T20:31:04.839Z,100214.76
2018-03-22T20:33:37.365Z,100214.88
2018-03-22T20:36:09.976Z,100210.22
2018-03-22T20:38:42.520Z,100213.33
2018-03-22T20:41:15.174Z,100218.00
2018-03-22T20:43:47.735Z,100214.55
2018-03-22T20:46:20.246Z,100216.28
2018-03-22T20:48:52.721Z,100219.22
2018-03-22T20:51:25.223Z,100219.22
2018-03-22T20:53:57.691Z,100222.76
2018-03-22T20:56:30.186Z,100221.92
2018-03-22T20:59:02.658Z,100227.08
2018-03-22T21:01:35.146Z,100225.73
2018-03-22T21:04:07.641Z,100227.33
2018-03-22T21:06:40.224Z,100223.83
2018-03-22T21:09:12.744Z,100220.18
2018-03-22T21:11:45.286Z,100219.92
2018-03-22T21:14:17.804Z,100216.77
2018-03-22T21:16:50.315Z,100216.50
2018-03-22T21:19:22.782Z,100217.31
2018-03-22T21:21:55.276Z,100222.45
2018-03-22T21:24:27.753Z,100220.33
2018-03-22T21:27:00.246Z,100217.30
2018-03-22T21:29:32.718Z,100224.10
2018-03-22T21:32:05.214Z,100221.94
2018-03-22T21:34:37.777Z,100224.88
2018-03-22T21:37:10.417Z,100214.68
2018-03-22T21:39:43.062Z,100216.87
2018-03-22T21:42:15.762Z,100219.80
2018-03-22T21:44:48.347Z,100214.20
2018-03-22T21:47:32.435Z,100212.05
2018-03-22T21:50:04.943Z,100207.81
2018-03-22T21:52:43.455Z,100208.73
2018-03-22T21:55:15.996Z,100212.14
2018-03-22T21:57:48.535Z,100210.87
2018-03-22T22:00:21.031Z,100208.27
2018-03-22T22:02:53.505Z,100203.34
2018-03-22T22:05:26.015Z,100204.79
2018-03-22T22:07:58.541Z,100200.96
2018-03-22T22:10:31.030Z,100191.34
2018-03-22T22:13:03.510Z,100199.67
2018-03-22T22:15:36.027Z,100208.11
2018-03-22T22:18:09.533Z,100198.01
2018-03-22T22:20:42.253Z,100201.95
2018-03-22T22:23:14.763Z,100201.54
2018-03-22T22:25:47.282Z,100199.53
2018-03-22T22:28:19.832Z,100201.23
2018-03-22T22:30:52.330Z,100199.97
2018-03-22T22:33:24.804Z,100200.35
2018-03-22T22:35:57.296Z,100208.91
2018-03-22T22:38:29.774Z,100207.20
2018-03-22T22:41:02.284Z,100206.72
2018-03-22T22:43:34.754Z,100200.82
2018-03-22T22:46:07.270Z,100197.96
2018-03-22T22:48:39.913Z,100192.95
2018-03-22T22:51:12.657Z,100188.40
2018-03-22T22:53:45.207Z,100185.55
2018-03-22T22:56:17.779Z,100188.05
2018-03-22T22:58:50.299Z,100183.33
2018-03-22T23:01:22.798Z,100187.22
2018-03-22T23:03:55.272Z,100183.95
2018-03-22T23:06:27.782Z,100176.78
2018-03-22T23:09:00.258Z,100178.88
2018-03-22T23:11:32.755Z,100176.88
2018-03-22T23:14:05.223Z,100172.66
2018-03-22T23:16:38.007Z,100162.92
2018-03-22T23:19:10.681Z,100160.75
2018-03-22T23:21:43.304Z,100161.61
2018-03-22T23:24:15.864Z,100164.58
2018-03-22T23:26:48.423Z,100163.63
2018-03-22T23:29:20.894Z,100165.30
2018-03-22T23:31:53.424Z,100157.86
2018-03-22T23:34:25.895Z,100156.11
2018-03-22T23:36:58.395Z,100155.53
2018-03-22T23:39:30.865Z,100160.94
2018-03-22T23:42:03.354Z,100163.03
2018-03-22T23:44:35.818Z,100157.91
2018-03-22T23:47:08.376Z,100150.75
2018-03-22T23:49:40.990Z,100150.38
2018-03-22T23:52:13.538Z,100155.84
2018-03-22T23:54:46.146Z,100153.73
2018-03-22T23:57:18.682Z,100158.39
2018-03-22T23:59:51.178Z,100150.22
